Terminal Aerodrome Forecast
Issued by NWS Mt. Holly, NJ

Home | Current Version | Previous Version | Text Only | Print | Product List | Glossary On
Versions: 1 2 3 4 5 6 7 8 9 10 11 12 13 14 15 16 17 18 19 20 21 22 23 24 25 26
000
FTUS41 KPHI 200559
TAFABE
TAF
KABE 200559Z 2006/2106 VRB03KT P6SM BKN025
     FM201100 10003KT P6SM SCT015
     FM201800 13005KT 4SM -RA SCT030 OVC070
     FM202000 12006KT 3SM -RA BR BKN015 OVC030
     FM202200 11004KT 2SM BR BKN007 OVC015
     FM210400 VRB02KT 1SM BR OVC003=

USA.gov is the U.S. government's official web portal to all federal, state and local government web resources and services.